Terminal Aerodrome Forecast
Issued by NWS

Home | Current Version | Previous Version | Text Only | Print | Product List | Glossary On
Versions: 1 2 3 4 5 6 7 8 9 10 11 12 13 14 15 16 17 18 19 20 21 22 23 24 25 26 27 28 29 30 31 32
000
FTUS45 KLKN 292300 AAA
TAFWMC
TAF AMD
KWMC 292350Z 3000/3024 04010KT P6SM VCTS SCT040CB BKN080
      TEMPO 3000/3004 VRB25G50KT 3SM -TSRA BLDU SCT020CB BKN070
     FM300500 VRB05KT P6SM VCSH BKN100
     FM301200 VRB03KT P6SM SCT150
     FM302000 34007KT P6SM VCTS BKN090CB=

USA.gov is the U.S. government's official web portal to all federal, state and local government web resources and services.